Time;durP1;ratioP1;P1;durP2;ratioP2;P2;SDS_P1;SDS_P2;PMS_P1;PMS_P2;Temp;Humidity;BMP_temperature;BMP_pressure;BME280_temperature;BME280_humidity;BME280_pressure;Samples;Min_cycle;Max_cycle;Signal;HPM_P1;HPM_P2
2021/03/09 00:00:33;;;;;;;16.40;12.63;;;-0.90;99.90;;;-0.01;74.82;98136.38;5185942;28;20203;-60
2021/03/09 00:03:05;;;;;;;12.73;11.57;;;-0.80;99.90;;;0.00;73.96;98132.28;5199892;28;20202;-61
2021/03/09 00:05:37;;;;;;;13.40;12.03;;;-0.90;99.90;;;0.01;73.60;98125.63;5204867;28;20281;-59
2021/03/09 00:08:12;;;;;;;13.40;11.60;;;-0.90;99.90;;;0.02;74.19;98129.91;5204483;28;20218;-60
2021/03/09 00:10:45;;;;;;;13.33;12.10;;;-0.90;99.90;;;0.06;73.57;98126.94;5189776;28;20204;-60
2021/03/09 00:13:17;;;;;;;13.50;12.10;;;-0.90;99.90;;;0.06;72.84;98131.97;5205461;28;20698;-60
2021/03/09 00:15:49;;;;;;;13.50;10.90;;;-1.00;99.90;;;-0.14;73.81;98130.84;5205816;28;20691;-60
2021/03/09 00:18:21;;;;;;;13.97;12.57;;;-1.10;99.90;;;-0.15;73.90;98121.53;5191217;28;20214;-60
2021/03/09 00:20:53;;;;;;;13.77;12.37;;;-1.00;99.90;;;-0.22;74.33;98121.66;5194935;28;20224;-60
2021/03/09 00:23:25;;;;;;;13.50;12.10;;;-1.00;99.90;;;-0.15;74.75;98125.66;5197327;28;20654;-60
2021/03/09 00:25:58;;;;;;;13.30;11.90;;;-1.00;99.90;;;-0.20;74.92;98130.25;5185572;28;20302;-60
2021/03/09 00:28:30;;;;;;;17.23;12.17;;;-1.00;99.90;;;-0.21;73.72;98120.91;5185356;28;20222;-61
2021/03/09 00:31:02;;;;;;;14.57;11.83;;;-1.00;99.90;;;-0.21;74.86;98122.53;5185260;28;20252;-60
2021/03/09 00:33:34;;;;;;;13.20;11.47;;;-1.00;99.90;;;-0.32;73.89;98117.28;5186173;28;20611;-61
2021/03/09 00:36:07;;;;;;;14.73;13.10;;;-1.10;99.90;;;-0.29;74.13;98124.25;5185312;28;20208;-58
2021/03/09 00:38:39;;;;;;;13.87;11.97;;;-1.10;99.90;;;-0.27;73.58;98117.78;5185321;28;20219;-60
2021/03/09 00:41:12;;;;;;;12.90;11.60;;;-1.10;99.90;;;-0.28;74.03;98118.50;5185078;28;20201;-60
2021/03/09 00:43:45;;;;;;;14.67;12.23;;;-1.20;99.90;;;-0.38;74.33;98113.28;5201430;28;20193;-60
2021/03/09 00:46:17;;;;;;;13.83;12.10;;;-1.20;99.90;;;-0.39;73.89;98111.50;5201764;28;20578;-60
2021/03/09 00:48:49;;;;;;;14.83;13.33;;;-1.30;99.90;;;-0.36;74.13;98104.28;5188880;28;20281;-60
2021/03/09 00:51:21;;;;;;;15.00;13.47;;;-1.20;99.90;;;-0.41;74.50;98106.31;5198114;28;20194;-61
2021/03/09 00:53:53;;;;;;;15.00;13.33;;;-1.20;99.90;;;-0.43;74.62;98099.34;5204665;28;20212;-60
2021/03/09 00:56:25;;;;;;;15.57;12.47;;;-1.30;99.90;;;-0.43;75.49;98106.88;5205758;28;20573;-60
2021/03/09 00:58:58;;;;;;;14.17;12.67;;;-1.30;99.90;;;-0.37;74.53;98100.88;5197723;28;20222;-59
2021/03/09 01:01:30;;;;;;;13.70;12.23;;;-1.30;99.90;;;-0.39;74.46;98098.94;5185063;28;20209;-59
2021/03/09 01:04:02;;;;;;;14.33;11.93;;;-1.20;99.90;;;-0.33;74.88;98107.09;5204819;28;20218;-60
2021/03/09 01:06:34;;;;;;;14.07;11.90;;;-1.20;99.90;;;-0.37;75.37;98105.00;5195771;28;20202;-60
2021/03/09 01:09:06;;;;;;;14.40;12.07;;;-1.30;99.90;;;-0.41;74.95;98101.28;5195167;28;20331;-60
2021/03/09 01:11:39;;;;;;;15.13;13.50;;;-1.30;99.90;;;-0.46;74.89;98095.81;5203116;28;20194;-60
2021/03/09 01:14:11;;;;;;;15.70;13.97;;;-1.30;99.90;;;-0.46;74.88;98094.91;5204822;28;20703;-60
2021/03/09 01:16:43;;;;;;;14.47;12.97;;;-1.30;99.90;;;-0.55;75.09;98099.88;5194847;28;20222;-60
2021/03/09 01:19:15;;;;;;;15.33;13.50;;;-1.30;99.90;;;-0.50;75.05;98092.81;5184967;28;20269;-61
2021/03/09 01:21:47;;;;;;;16.07;13.23;;;-1.30;99.90;;;-0.51;76.33;98096.06;5189469;28;20796;-61
2021/03/09 01:24:19;;;;;;;15.33;13.27;;;-1.30;99.90;;;-0.51;76.41;98089.44;5184665;28;20236;-61
2021/03/09 01:26:52;;;;;;;18.37;14.33;;;-1.20;99.90;;;-0.47;76.33;98086.47;5184271;28;20249;-59
2021/03/09 01:29:24;;;;;;;15.30;12.97;;;-1.20;99.90;;;-0.46;75.69;98084.84;5189119;28;20224;-60
2021/03/09 01:31:56;;;;;;;14.47;12.97;;;-1.20;99.90;;;-0.43;76.81;98080.16;5205281;28;20216;-59
2021/03/09 01:34:28;;;;;;;14.13;12.77;;;-1.20;99.90;;;-0.36;75.51;98076.66;5195602;28;20205;-59
2021/03/09 01:37:00;;;;;;;12.77;11.53;;;-1.30;99.90;;;-0.36;75.86;98085.06;5184857;28;20201;-58
2021/03/09 01:39:33;;;;;;;14.60;12.93;;;-1.30;99.90;;;-0.39;75.24;98081.38;5189289;28;20213;-60
2021/03/09 01:42:07;;;;;;;16.03;13.33;;;-1.30;99.90;;;-0.41;74.16;98077.81;5203277;28;20233;-61
2021/03/09 01:44:39;;;;;;;14.73;13.23;;;-1.40;99.90;;;-0.49;75.13;98070.41;5204461;28;20196;-60
2021/03/09 01:47:11;;;;;;;14.83;13.00;;;-1.40;99.90;;;-0.52;75.55;98071.69;5205161;28;20584;-61
2021/03/09 01:49:44;;;;;;;13.60;12.20;;;-1.40;99.90;;;-0.40;75.08;98064.50;5201088;28;20218;-60
2021/03/09 01:52:16;;;;;;;13.53;12.13;;;-1.40;99.90;;;-0.46;74.22;98064.78;5205184;28;20205;-59
2021/03/09 01:54:48;;;;;;;14.70;12.63;;;-1.60;99.90;;;-0.61;74.95;98064.09;5204809;28;20208;-61
2021/03/09 01:57:21;;;;;;;14.33;12.83;;;-1.60;99.90;;;-0.69;74.75;98064.94;5205099;28;20198;-61
2021/03/09 01:59:56;;;;;;;13.90;12.50;;;-1.60;99.90;;;-0.72;75.50;98062.09;5206756;28;20222;-60
2021/03/09 02:02:28;;;;;;;15.67;13.63;;;-1.50;99.90;;;-0.66;75.48;98059.34;5208671;28;20201;-61
2021/03/09 02:05:00;;;;;;;14.87;13.17;;;-1.40;99.90;;;-0.61;75.45;98056.56;5192698;28;20671;-59
2021/03/09 02:07:32;;;;;;;14.87;13.27;;;-1.50;99.90;;;-0.64;75.29;98053.75;5187980;28;20202;-61
2021/03/09 02:10:09;;;;;;;14.33;12.87;;;-1.60;99.90;;;-0.74;74.60;98046.03;5189045;28;20487;-60
2021/03/09 02:12:58;;;;;;;13.67;12.30;;;-1.70;99.90;;;-0.87;75.08;98050.50;5187882;28;20202;-59
2021/03/09 02:15:36;;;;;;;15.07;13.13;;;-1.70;99.90;;;-0.84;75.89;98041.66;5205198;28;20221;-61
2021/03/09 02:18:18;;;;;;;14.20;12.80;;;-1.70;99.90;;;-0.79;75.89;98032.09;5198754;28;20218;-61
2021/03/09 02:21:20;;;;;;;13.70;12.23;;;-1.80;99.90;;;-0.73;76.04;98033.63;5188300;28;20206;-61
2021/03/09 02:24:22;;;;;;;13.17;11.87;;;-1.70;99.90;;;-0.83;76.07;98032.50;5201710;28;20660;-59
2021/03/09 02:27:21;;;;;;;13.73;12.27;;;-1.70;99.90;;;-0.87;75.00;98030.44;5208183;28;20213;-59
2021/03/09 02:30:16;;;;;;;15.27;13.67;;;-1.70;99.90;;;-0.79;76.47;98024.59;5187497;28;20234;-61
2021/03/09 02:32:59;;;;;;;14.83;12.83;;;-1.70;99.90;;;-0.77;74.79;98025.63;5196079;28;20749;-60
2021/03/09 02:35:33;;;;;;;15.50;13.70;;;-1.70;99.90;;;-0.85;75.86;98021.44;5206080;28;20190;-58
2021/03/09 02:38:08;;;;;;;14.23;12.70;;;-1.80;99.90;;;-0.93;75.09;98014.00;5196361;28;20687;-60
2021/03/09 02:40:40;;;;;;;14.43;12.90;;;-1.80;99.90;;;-0.93;76.21;98024.03;5188970;28;20193;-60
2021/03/09 02:43:17;;;;;;;15.57;13.10;;;-1.80;99.90;;;-0.88;75.69;98017.00;5190643;28;20198;-60
2021/03/09 02:45:51;;;;;;;14.23;12.77;;;-1.80;99.90;;;-0.92;75.00;98015.81;5195746;28;20208;-60
2021/03/09 02:48:26;;;;;;;16.50;13.50;;;-1.90;99.90;;;-0.94;75.98;98017.25;5204474;28;20218;-60
2021/03/09 02:50:59;;;;;;;14.87;13.33;;;-1.80;99.90;;;-0.92;76.10;98018.31;5196810;28;20292;-60
2021/03/09 02:53:34;;;;;;;13.90;12.47;;;-1.90;99.90;;;-0.96;75.77;98011.19;5207439;28;20206;-60
2021/03/09 02:56:08;;;;;;;14.97;13.37;;;-1.90;99.90;;;-0.92;74.90;98014.88;5196904;28;20198;-60
2021/03/09 02:58:45;;;;;;;14.20;12.73;;;-1.90;99.90;;;-1.02;75.18;98008.03;5187007;28;20236;-62
2021/03/09 03:01:19;;;;;;;15.53;12.77;;;-1.90;99.90;;;-1.02;76.13;98008.03;5201939;28;20198;-60
2021/03/09 03:03:53;;;;;;;14.40;12.90;;;-1.90;99.90;;;-0.98;75.82;98009.25;5189476;28;20194;-60
2021/03/09 03:06:26;;;;;;;15.53;13.80;;;-2.00;99.90;;;-1.03;75.25;98006.28;5202224;28;20194;-60
2021/03/09 03:09:01;;;;;;;15.60;13.23;;;-2.00;99.90;;;-1.04;75.35;98007.00;5207512;28;20321;-60
2021/03/09 03:11:34;;;;;;;14.57;13.10;;;-2.00;99.90;;;-1.05;76.55;98007.72;5191417;28;20198;-61
2021/03/09 03:14:07;;;;;;;17.17;14.33;;;-2.00;99.90;;;-1.18;76.91;98009.69;5189545;28;20206;-60
2021/03/09 03:16:42;;;;;;;16.53;13.43;;;-2.00;99.90;;;-1.16;76.54;98003.22;5186956;28;20603;-60
2021/03/09 03:19:16;;;;;;;14.80;13.30;;;-2.00;99.90;;;-1.22;76.63;98008.50;5200981;28;20219;-58
2021/03/09 03:21:49;;;;;;;15.33;13.73;;;-2.10;99.90;;;-1.22;77.42;98003.47;5189739;28;20213;-61
2021/03/09 03:24:21;;;;;;;16.23;14.50;;;-2.00;99.90;;;-1.16;77.31;98009.13;5201210;28;20201;-58
2021/03/09 03:26:53;;;;;;;16.07;14.33;;;-2.00;99.90;;;-1.11;76.50;98009.59;5207157;28;20206;-60
2021/03/09 03:29:25;;;;;;;15.20;13.63;;;-2.00;99.90;;;-1.10;76.54;98003.84;5188178;28;20260;-59
2021/03/09 03:31:59;;;;;;;15.70;13.53;;;-2.00;99.90;;;-1.12;76.64;98002.78;5186448;28;20199;-60
2021/03/09 03:34:31;;;;;;;15.00;13.50;;;-2.00;99.90;;;-1.17;77.09;98001.47;5195528;28;20221;-59
2021/03/09 03:37:03;;;;;;;15.80;14.10;;;-2.00;99.90;;;-1.27;75.76;98007.13;5206691;28;20198;-60
2021/03/09 03:39:37;;;;;;;19.07;15.33;;;-2.10;99.90;;;-1.20;77.00;98001.13;5187983;28;20219;-60
2021/03/09 03:42:09;;;;;;;16.67;13.70;;;-2.00;99.90;;;-1.12;77.28;98005.31;5200805;28;20194;-60
2021/03/09 03:44:41;;;;;;;17.60;15.17;;;-2.00;99.90;;;-1.06;76.68;98005.97;5196925;28;20199;-59
2021/03/09 03:47:15;;;;;;;18.00;14.40;;;-2.00;99.90;;;-0.93;75.29;98003.09;5186420;28;20202;-60
2021/03/09 03:49:47;;;;;;;18.37;14.33;;;-2.00;99.90;;;-1.07;76.81;98009.19;5191731;28;20627;-60
2021/03/09 03:52:25;;;;;;;16.60;14.50;;;-2.10;99.90;;;-1.08;75.38;98011.56;5206472;28;20202;-60
2021/03/09 03:55:06;;;;;;;15.97;14.27;;;-2.00;99.90;;;-1.12;77.07;98007.81;5196369;28;20199;-60
2021/03/09 03:57:47;;;;;;;15.80;13.57;;;-2.10;99.90;;;-1.16;76.18;98013.25;5185816;28;20210;-60
2021/03/09 04:00:22;;;;;;;16.67;14.43;;;-2.10;99.90;;;-1.21;75.75;98005.25;5204106;28;20204;-58
2021/03/09 04:02:56;;;;;;;15.97;14.27;;;-2.10;99.90;;;-1.22;75.75;98000.09;5206419;28;20205;-60
2021/03/09 04:05:30;;;;;;;15.60;13.90;;;-2.20;99.90;;;-1.22;76.37;98012.63;5187399;28;20217;-58
2021/03/09 04:08:02;;;;;;;16.90;14.83;;;-2.20;99.90;;;-1.24;75.99;98001.53;5186860;28;20235;-61
2021/03/09 04:10:35;;;;;;;18.30;13.87;;;-2.20;99.90;;;-1.28;75.88;98001.97;5187227;28;20194;-60
2021/03/09 04:13:07;;;;;;;16.80;14.37;;;-2.20;99.90;;;-1.27;75.22;97997.09;5196069;28;20205;-60
2021/03/09 04:15:39;;;;;;;15.53;13.87;;;-2.30;99.90;;;-1.24;75.43;97996.53;5187001;28;20195;-57
2021/03/09 04:18:15;;;;;;;16.00;14.40;;;-2.30;99.90;;;-1.33;76.45;97988.06;5185445;28;20214;-60
2021/03/09 04:20:48;;;;;;;14.97;13.47;;;-2.30;99.90;;;-1.40;77.03;97996.56;5185328;28;20200;-60
2021/03/09 04:23:21;;;;;;;16.00;14.23;;;-2.30;99.90;;;-1.35;75.53;97985.38;5184740;28;20205;-60
2021/03/09 04:25:55;;;;;;;18.57;13.63;;;-2.40;99.90;;;-1.45;76.31;97993.56;5201980;28;20193;-60
2021/03/09 04:28:27;;;;;;;17.97;14.33;;;-2.40;99.90;;;-1.44;76.31;97989.44;5205330;28;20225;-60
2021/03/09 04:31:00;;;;;;;16.33;14.53;;;-2.40;99.90;;;-1.44;76.16;97992.81;5188591;28;20209;-60
2021/03/09 04:33:33;;;;;;;15.37;13.50;;;-2.40;99.90;;;-1.42;75.82;97993.88;5195934;28;20198;-60
2021/03/09 04:36:07;;;;;;;16.67;14.77;;;-2.40;99.90;;;-1.30;75.31;97996.78;5194455;28;20553;-60
2021/03/09 04:38:39;;;;;;;15.53;13.43;;;-2.40;99.90;;;-1.36;76.58;97994.50;5195927;28;20216;-58
2021/03/09 04:41:11;;;;;;;15.60;14.00;;;-2.40;99.90;;;-1.45;75.99;97991.06;5203806;28;20201;-60
2021/03/09 04:43:43;;;;;;;17.23;14.43;;;-2.40;99.90;;;-1.51;76.81;97992.91;5204915;28;20198;-60
2021/03/09 04:46:16;;;;;;;15.27;13.70;;;-2.40;99.90;;;-1.55;77.47;97993.31;5199348;28;20576;-60
2021/03/09 04:48:49;;;;;;;18.07;14.43;;;-2.50;99.90;;;-1.56;75.90;97989.03;5205724;28;20227;-60
2021/03/09 04:51:23;;;;;;;16.77;14.17;;;-2.40;99.90;;;-1.52;76.03;97993.63;5191728;28;20198;-59
2021/03/09 04:53:55;;;;;;;15.77;14.10;;;-2.40;99.90;;;-1.37;76.24;98001.88;5185293;28;20208;-58
2021/03/09 04:56:28;;;;;;;18.30;14.87;;;-2.40;99.90;;;-1.35;76.14;97995.41;5192059;28;20688;-58
2021/03/09 04:59:00;;;;;;;17.03;14.53;;;-2.40;99.90;;;-1.40;76.13;97992.44;5200243;28;20244;-60
2021/03/09 05:01:33;;;;;;;16.00;13.70;;;-2.40;99.90;;;-1.43;75.96;97991.19;5190099;28;20210;-60
2021/03/09 05:04:06;;;;;;;16.30;14.10;;;-2.40;99.90;;;-1.45;75.63;97988.53;5197919;28;20198;-60
2021/03/09 05:06:38;;;;;;;16.30;14.27;;;-2.40;99.90;;;-1.40;75.86;97992.44;5184847;28;20572;-59
2021/03/09 05:09:10;;;;;;;16.63;14.80;;;-2.40;99.90;;;-1.42;75.35;97988.88;5189679;28;20228;-59
2021/03/09 05:11:42;;;;;;;17.17;14.17;;;-2.50;99.90;;;-1.57;76.68;97984.75;5192092;28;20297;-59
2021/03/09 05:14:14;;;;;;;18.90;16.73;;;-2.60;99.90;;;-1.64;76.51;97985.72;5190936;28;20198;-60
2021/03/09 05:16:46;;;;;;;17.63;15.23;;;-2.50;99.90;;;-1.61;76.16;97983.53;5203808;28;20205;-61
2021/03/09 05:19:19;;;;;;;20.40;15.60;;;-2.50;99.90;;;-1.57;77.50;97989.78;5199961;28;20211;-60
2021/03/09 05:21:51;;;;;;;19.40;16.00;;;-2.40;99.90;;;-1.52;77.13;97991.13;5203587;28;20197;-59
2021/03/09 05:24:23;;;;;;;19.67;16.50;;;-2.40;99.90;;;-1.53;77.42;97994.38;5192596;28;20198;-60
2021/03/09 05:26:56;;;;;;;18.50;16.50;;;-2.30;99.90;;;-1.53;77.73;97999.38;5194203;28;20206;-59
2021/03/09 05:29:28;;;;;;;18.50;16.40;;;-2.20;99.90;;;-1.49;78.63;98001.47;5191397;28;20217;-59
2021/03/09 05:32:00;;;;;;;18.93;15.93;;;-2.20;99.90;;;-1.43;77.46;98002.13;5201418;28;20202;-59
2021/03/09 05:34:33;;;;;;;18.87;16.63;;;-2.20;99.90;;;-1.34;77.66;98001.28;5203187;28;20617;-60
2021/03/09 05:37:08;;;;;;;20.33;17.00;;;-2.20;99.90;;;-1.28;76.02;97996.94;5208209;28;20208;-60
2021/03/09 05:39:40;;;;;;;18.07;15.73;;;-2.20;99.90;;;-1.36;76.75;97996.13;5198843;28;20217;-58
2021/03/09 05:42:13;;;;;;;18.47;15.70;;;-2.30;99.90;;;-1.25;76.72;97994.75;5202445;28;20577;-61
2021/03/09 05:44:45;;;;;;;18.20;16.30;;;-2.30;99.90;;;-1.31;76.89;98001.63;5193728;28;20298;-60
2021/03/09 05:47:17;;;;;;;18.13;16.23;;;-2.30;99.90;;;-1.31;76.00;98001.63;5196081;28;20198;-60
2021/03/09 05:49:50;;;;;;;18.30;15.63;;;-2.30;99.90;;;-1.31;77.43;98006.66;5198450;28;20340;-60
2021/03/09 05:52:22;;;;;;;18.77;16.47;;;-2.30;99.90;;;-1.33;76.37;98005.59;5200641;28;20575;-59
2021/03/09 05:54:54;;;;;;;18.23;15.87;;;-2.40;99.90;;;-1.44;77.34;98007.84;5206444;28;20285;-59
2021/03/09 05:57:27;;;;;;;18.10;15.83;;;-2.40;99.90;;;-1.49;77.69;98006.47;5199464;28;20248;-60
2021/03/09 05:59:59;;;;;;;18.37;16.43;;;-2.40;99.90;;;-1.51;77.41;98000.44;5209948;28;20212;-60
2021/03/09 06:02:31;;;;;;;21.20;17.77;;;-2.40;99.90;;;-1.54;76.53;97999.22;5203841;28;20190;-60
2021/03/09 06:05:06;;;;;;;17.60;15.73;;;-2.40;99.90;;;-1.52;77.00;98006.16;5201418;28;20691;-59
2021/03/09 06:07:39;;;;;;;17.23;15.43;;;-2.40;99.90;;;-1.46;77.31;98005.91;5197789;28;20209;-60
2021/03/09 06:10:20;;;;;;;20.67;17.20;;;-2.30;99.90;;;-1.45;76.37;98005.19;5197674;28;20217;-60
2021/03/09 06:12:53;;;;;;;18.87;16.00;;;-2.30;99.90;;;-1.43;76.13;98008.72;5193494;28;20206;-60
2021/03/09 06:15:25;;;;;;;20.47;16.43;;;-2.30;99.90;;;-1.41;77.19;98014.81;5196596;28;20650;-59
2021/03/09 06:17:59;;;;;;;19.43;17.13;;;-2.30;99.90;;;-1.33;77.23;98014.00;5210350;28;20769;-60
2021/03/09 06:20:32;;;;;;;18.07;15.93;;;-2.20;99.90;;;-1.22;77.19;98008.50;5199481;28;20579;-61
2021/03/09 06:23:04;;;;;;;18.57;15.97;;;-2.20;99.90;;;-1.21;77.45;98012.75;5194529;28;20203;-60
2021/03/09 06:25:38;;;;;;;20.03;16.63;;;-2.10;99.90;;;-1.17;77.00;98006.47;5190535;28;20201;-58
2021/03/09 06:28:10;;;;;;;20.17;16.83;;;-2.10;99.90;;;-1.23;76.61;98011.75;5194391;28;20221;-58
2021/03/09 06:30:42;;;;;;;19.67;16.70;;;-2.20;99.90;;;-1.23;77.62;98011.75;5195130;28;20288;-57
2021/03/09 06:33:27;;;;;;;19.53;16.17;;;-2.20;99.90;;;-1.05;77.26;98022.78;5197141;28;20199;-58
2021/03/09 06:36:11;;;;;;;20.73;17.37;;;-2.10;99.90;;;-0.99;76.84;98015.88;5191806;28;20230;-60
2021/03/09 06:38:43;;;;;;;19.90;17.10;;;-2.00;99.90;;;-0.91;76.53;98017.56;5197706;28;20214;-60
2021/03/09 06:41:17;;;;;;;19.63;17.07;;;-1.80;99.90;;;-0.88;76.04;98011.09;5196235;28;20204;-60
2021/03/09 06:44:01;;;;;;;18.77;16.27;;;-1.80;99.90;;;-0.86;76.75;98023.03;5202308;28;20193;-60
2021/03/09 06:46:45;;;;;;;19.80;16.47;;;-1.80;99.90;;;-0.65;76.23;98019.34;5209059;28;20708;-60
2021/03/09 06:49:18;;;;;;;20.40;17.27;;;-1.60;99.90;;;-0.76;77.20;98025.78;5196860;28;20218;-62
2021/03/09 06:51:51;;;;;;;21.50;17.63;;;-1.70;99.90;;;-0.67;76.33;98023.31;5191598;28;20206;-61
2021/03/09 06:54:23;;;;;;;18.97;16.97;;;-1.70;99.90;;;-0.60;76.07;98034.88;5187347;28;20198;-61
2021/03/09 06:57:09;;;;;;;19.83;17.73;;;-1.60;99.90;;;-0.55;76.04;98028.69;5194735;28;20224;-60
2021/03/09 06:59:48;;;;;;;20.23;17.27;;;-1.60;99.90;;;-0.51;76.48;98026.66;5206101;28;20221;-60
2021/03/09 07:02:22;;;;;;;20.73;18.00;;;-1.40;99.90;;;-0.32;76.33;98031.03;5191042;28;20202;-59
2021/03/09 07:05:02;;;;;;;18.43;16.50;;;-1.30;99.90;;;-0.12;76.32;98023.88;5198686;28;20198;-60
2021/03/09 07:07:37;;;;;;;21.30;17.90;;;-1.10;99.90;;;-0.02;75.24;98031.59;5202327;28;20198;-60
2021/03/09 07:10:12;;;;;;;21.93;17.93;;;-1.00;99.90;;;0.17;75.38;98018.34;5197684;28;20589;-62
2021/03/09 07:12:46;;;;;;;19.47;17.30;;;-0.90;99.90;;;0.28;74.14;98025.31;5198114;28;20279;-60
2021/03/09 07:15:20;;;;;;;20.50;18.30;;;-0.80;99.90;;;0.53;73.78;98016.06;5203959;28;20578;-63
2021/03/09 07:17:52;;;;;;;20.27;17.67;;;-0.60;99.90;;;0.54;73.47;98032.91;5206574;28;20214;-58
2021/03/09 07:20:25;;;;;;;20.60;18.13;;;-0.60;99.90;;;0.63;72.56;98027.91;5191012;28;20213;-59
2021/03/09 07:23:02;;;;;;;20.67;18.13;;;-0.60;99.90;;;0.41;72.79;98025.81;5204505;28;20284;-58
2021/03/09 07:25:35;;;;;;;22.70;18.77;;;-0.60;99.90;;;0.36;74.23;98026.09;5188275;28;20205;-62
2021/03/09 07:28:10;;;;;;;22.17;19.13;;;-0.60;99.90;;;0.62;74.10;98031.16;5191721;28;20233;-60
2021/03/09 07:30:45;;;;;;;22.60;18.43;;;-0.40;99.90;;;0.68;73.99;98027.59;5197145;28;20222;-61
2021/03/09 07:33:19;;;;;;;22.40;20.00;;;-0.30;99.90;;;0.79;73.60;98036.19;5186200;28;20202;-61
2021/03/09 07:35:51;;;;;;;21.97;19.17;;;-0.20;99.90;;;1.02;73.18;98035.03;5195099;28;20715;-60
2021/03/09 07:38:25;;;;;;;21.87;19.50;;;0.00;99.90;;;1.06;72.73;98027.94;5199566;28;20217;-60
2021/03/09 07:40:57;;;;;;;23.63;20.57;;;0.10;99.90;;;1.24;72.75;98032.94;5196149;28;20439;-59
2021/03/09 07:43:29;;;;;;;23.83;21.33;;;0.20;99.90;;;1.37;72.32;98035.84;5196618;28;20645;-60
2021/03/09 07:46:01;;;;;;;24.07;21.37;;;0.30;99.90;;;1.53;72.28;98029.03;5200555;28;20554;-60
2021/03/09 07:48:32;;;;;;;23.73;21.10;;;0.50;99.90;;;1.73;71.62;98033.41;5203771;28;20308;-60
2021/03/09 07:51:06;;;;;;;24.90;20.23;;;0.60;99.90;;;1.97;71.10;98029.75;5206798;28;20205;-59
2021/03/09 07:54:11;;;;;;;22.63;19.33;;;0.70;99.90;;;2.10;69.96;98020.81;5199080;28;20291;-59
2021/03/09 07:57:17;;;;;;;23.77;19.33;;;0.70;99.90;;;2.22;69.75;98025.34;5200776;28;20298;-61
2021/03/09 07:59:59;;;;;;;22.20;19.63;;;1.00;99.90;;;2.22;70.03;98025.34;5196836;28;20306;-61
2021/03/09 08:02:49;;;;;;;22.50;19.67;;;1.00;99.90;;;2.38;69.27;98026.75;5203046;28;20245;-60
2021/03/09 08:05:24;;;;;;;21.93;19.53;;;1.10;99.90;;;2.42;68.77;98029.66;5197698;28;20197;-61
2021/03/09 08:08:00;;;;;;;22.93;20.43;;;1.10;99.90;;;2.53;68.25;98027.25;5196797;28;20271;-61
2021/03/09 08:10:46;;;;;;;21.87;19.67;;;1.20;99.90;;;2.56;69.13;98022.47;5200921;28;20732;-61
2021/03/09 08:13:26;;;;;;;22.30;19.70;;;1.30;99.90;;;2.67;69.17;98029.38;5203905;28;20248;-61
2021/03/09 08:16:33;;;;;;;25.70;20.90;;;1.50;99.90;;;2.78;69.09;98027.81;5195728;28;20655;-58
2021/03/09 08:19:09;;;;;;;22.90;20.07;;;1.60;99.90;;;3.12;67.83;98027.53;5193668;28;20288;-59
2021/03/09 08:21:56;;;;;;;22.47;20.07;;;1.90;99.90;;;3.17;67.31;98027.91;5190040;28;20198;-59
2021/03/09 08:24:51;;;;;;;25.57;20.57;;;2.10;99.90;;;3.13;67.57;98016.66;5202087;28;20197;-61
2021/03/09 08:27:43;;;;;;;24.37;19.80;;;2.00;99.90;;;3.31;67.81;98026.59;5185063;28;20246;-59
2021/03/09 08:30:29;;;;;;;21.87;18.60;;;2.00;99.90;;;3.27;66.57;98028.00;5194619;28;20224;-60
2021/03/09 08:33:24;;;;;;;25.40;22.20;;;2.00;99.90;;;3.39;66.42;98018.06;5188894;28;20206;-59
2021/03/09 08:35:56;;;;;;;24.73;21.07;;;2.10;99.90;;;3.42;66.42;98012.41;5190631;28;20204;-61
2021/03/09 08:38:29;;;;;;;23.83;21.30;;;2.20;99.90;;;3.47;67.03;98024.66;5187714;28;20228;-61
2021/03/09 08:41:12;;;;;;;25.37;20.43;;;2.20;99.90;;;3.60;67.35;98019.91;5200452;28;20210;-61
2021/03/09 08:44:18;;;;;;;23.37;20.73;;;2.40;99.90;;;3.88;65.52;98012.16;5197296;28;20649;-61
2021/03/09 08:46:55;;;;;;;22.50;20.10;;;2.60;99.90;;;3.84;65.92;98017.72;5194229;28;20296;-62
2021/03/09 08:49:51;;;;;;;23.37;20.93;;;2.60;99.90;;;3.90;nan;98010.66;5201879;28;20235;-58
2021/03/09 08:52:42;;;;;;;22.13;19.73;;;2.70;99.90;;;3.93;66.32;98017.63;5193181;28;20550;-59
2021/03/09 08:55:14;;;;;;;22.07;18.50;;;2.80;99.90;;;3.94;66.17;98012.69;5203105;28;20203;-59
2021/03/09 08:57:46;;;;;;;21.90;19.50;;;2.80;99.90;;;3.87;65.30;98020.50;5194669;28;20204;-58
2021/03/09 09:00:21;;;;;;;31.03;25.30;;;2.70;99.90;;;3.95;65.68;98009.41;5185507;28;20225;-60
2021/03/09 09:02:53;;;;;;;33.03;25.87;;;2.80;99.90;;;4.10;65.68;98011.47;5191205;28;20204;-59
2021/03/09 09:05:30;;;;;;;30.63;25.53;;;2.80;99.90;;;4.14;65.39;98005.91;5199002;28;20251;-59
2021/03/09 09:08:03;;;;;;;24.00;19.97;;;3.00;99.90;;;4.13;64.76;98007.53;5199699;28;20263;-59
2021/03/09 09:10:35;;;;;;;23.50;20.10;;;3.00;99.90;;;4.32;65.00;98007.44;5201136;28;20237;-59
2021/03/09 09:13:07;;;;;;;25.90;22.03;;;3.00;99.90;;;4.39;64.70;98004.66;5193646;28;20216;-60
2021/03/09 09:15:40;;;;;;;26.27;21.87;;;3.20;99.90;;;4.44;64.64;98005.94;5202198;28;20209;-60
2021/03/09 09:18:12;;;;;;;25.97;22.10;;;3.30;99.90;;;4.54;64.94;98007.56;5199196;28;20218;-60
2021/03/09 09:20:47;;;;;;;23.97;20.63;;;3.40;99.90;;;4.66;64.27;98002.63;5191960;28;20196;-60
2021/03/09 09:23:22;;;;;;;23.73;19.83;;;3.50;99.90;;;4.74;64.24;98001.59;5198063;28;20542;-61
2021/03/09 09:25:56;;;;;;;21.60;19.30;;;3.50;99.90;;;4.84;64.19;97996.53;5192176;28;20210;-59
2021/03/09 09:28:30;;;;;;;22.47;19.20;;;3.60;99.90;;;5.00;64.13;97997.75;5202004;28;20756;-60
2021/03/09 09:31:08;;;;;;;22.30;19.80;;;3.90;99.90;;;5.17;63.03;97997.47;5204457;28;20266;-60
2021/03/09 09:33:51;;;;;;;23.30;20.23;;;3.90;99.90;;;5.20;62.86;97992.63;5193760;28;20199;-58
2021/03/09 09:36:25;;;;;;;22.57;19.20;;;3.90;99.90;;;5.29;62.67;97988.28;5203784;28;20566;-59
2021/03/09 09:38:58;;;;;;;22.40;19.07;;;4.00;99.90;;;5.37;62.26;97987.25;5195328;28;20311;-61
2021/03/09 09:41:30;;;;;;;21.67;19.37;;;4.10;99.90;;;5.44;61.56;97991.19;5188068;28;20203;-56
2021/03/09 09:44:02;;;;;;;21.40;19.07;;;4.00;99.90;;;5.50;61.44;97993.31;5193237;28;20204;-59
2021/03/09 09:46:35;;;;;;;21.30;19.00;;;4.10;99.90;;;5.54;61.05;97985.16;5202715;28;20196;-61
2021/03/09 09:49:08;;;;;;;20.90;18.50;;;4.20;99.90;;;5.56;61.46;97988.72;5205172;28;20241;-59
2021/03/09 09:51:42;;;;;;;20.60;18.40;;;4.30;99.90;;;5.72;61.37;97975.56;5194973;28;20217;-60
2021/03/09 09:54:23;;;;;;;21.23;18.70;;;4.40;99.90;;;5.86;60.95;97983.47;5195751;28;21610;-59
2021/03/09 09:57:08;;;;;;;21.43;19.13;;;4.60;99.90;;;5.97;59.94;97986.88;5202745;28;20655;-59
2021/03/09 09:59:40;;;;;;;20.87;18.67;;;4.50;99.90;;;6.07;60.34;97991.00;5203493;28;20237;-60
2021/03/09 10:02:22;;;;;;;21.03;18.70;;;4.60;99.90;;;6.17;59.21;97988.38;5202948;28;20202;-56
2021/03/09 10:04:55;;;;;;;21.50;19.20;;;4.80;99.90;;;6.30;59.07;97992.75;5202021;28;20573;-60
2021/03/09 10:07:28;;;;;;;21.63;19.23;;;4.80;99.90;;;6.32;59.00;97989.56;5194478;28;20199;-60
2021/03/09 10:10:07;;;;;;;20.23;17.60;;;4.90;99.90;;;6.43;58.46;97986.94;5196606;28;20255;-59
2021/03/09 10:12:50;;;;;;;20.77;18.57;;;4.90;99.90;;;6.48;58.02;97983.97;5201758;28;20194;-60
2021/03/09 10:15:22;;;;;;;20.50;18.30;;;5.00;99.90;;;6.62;57.98;97982.47;5203806;28;20608;-60
2021/03/09 10:18:04;;;;;;;22.67;18.67;;;5.20;99.90;;;6.68;57.67;97977.81;5201792;28;20222;-60
2021/03/09 10:20:36;;;;;;;20.20;17.53;;;5.20;99.90;;;6.72;57.17;97982.38;5199541;28;20190;-60
2021/03/09 10:23:09;;;;;;;19.47;17.47;;;5.40;99.90;;;6.65;57.89;97975.06;5205859;28;20625;-60
2021/03/09 10:25:41;;;;;;;18.47;16.57;;;5.40;99.90;;;6.75;56.54;97977.53;5204769;28;20197;-60
2021/03/09 10:28:13;;;;;;;18.67;16.73;;;5.50;99.90;;;6.75;56.79;97984.22;5207266;28;20233;-59
2021/03/09 10:30:45;;;;;;;19.87;17.60;;;5.50;99.90;;;7.09;56.58;97979.06;5203494;28;20221;-60
2021/03/09 10:33:18;;;;;;;19.07;17.07;;;5.80;99.90;;;7.25;55.76;97981.97;5206699;28;20290;-61
2021/03/09 10:36:10;;;;;;;17.47;15.67;;;5.90;99.90;;;7.25;55.09;97978.53;5199756;28;20201;-58
2021/03/09 10:38:42;;;;;;;19.07;17.10;;;6.00;99.90;;;7.49;54.27;97972.63;5208948;28;20663;-58
2021/03/09 10:41:25;;;;;;;19.73;17.63;;;5.90;99.90;;;7.50;54.29;97969.34;5206188;28;20206;-60
2021/03/09 10:43:57;;;;;;;20.40;18.20;;;6.10;99.90;;;7.41;54.42;97963.56;5207239;28;20228;-61